sensor_id;sensor_type;location;lat;lon;timestamp;temperature;humidity
13682;DHT22;6913;49.892;7.936;2022-11-09T00:01:40;9.70;99.90
13682;DHT22;6913;49.892;7.936;2022-11-09T00:04:07;9.60;99.90
13682;DHT22;6913;49.892;7.936;2022-11-09T00:06:35;9.70;99.90
13682;DHT22;6913;49.892;7.936;2022-11-09T00:09:04;9.80;99.90
13682;DHT22;6913;49.892;7.936;2022-11-09T00:11:31;9.80;99.90
13682;DHT22;6913;49.892;7.936;2022-11-09T00:13:59;9.90;99.90
13682;DHT22;6913;49.892;7.936;2022-11-09T00:16:26;10.00;99.90
13682;DHT22;6913;49.892;7.936;2022-11-09T00:18:53;10.00;99.90
13682;DHT22;6913;49.892;7.936;2022-11-09T00:21:21;10.00;99.90
13682;DHT22;6913;49.892;7.936;2022-11-09T00:23:49;10.10;99.90
13682;DHT22;6913;49.892;7.936;2022-11-09T00:26:17;10.00;99.90
13682;DHT22;6913;49.892;7.936;2022-11-09T00:28:45;10.00;99.90
13682;DHT22;6913;49.892;7.936;2022-11-09T00:31:15;10.20;99.90
13682;DHT22;6913;49.892;7.936;2022-11-09T00:33:42;10.00;99.90
13682;DHT22;6913;49.892;7.936;2022-11-09T00:36:10;10.10;99.90
13682;DHT22;6913;49.892;7.936;2022-11-09T00:38:38;10.10;99.90
13682;DHT22;6913;49.892;7.936;2022-11-09T00:41:08;10.10;99.90
13682;DHT22;6913;49.892;7.936;2022-11-09T00:43:35;10.70;99.90
13682;DHT22;6913;49.892;7.936;2022-11-09T00:46:03;10.10;99.90
13682;DHT22;6913;49.892;7.936;2022-11-09T00:48:31;10.00;99.90
13682;DHT22;6913;49.892;7.936;2022-11-09T00:50:59;10.40;99.90
13682;DHT22;6913;49.892;7.936;2022-11-09T00:53:26;10.10;99.90
13682;DHT22;6913;49.892;7.936;2022-11-09T00:55:54;10.20;99.90
13682;DHT22;6913;49.892;7.936;2022-11-09T00:58:21;10.20;99.90
13682;DHT22;6913;49.892;7.936;2022-11-09T01:00:49;10.30;99.90
13682;DHT22;6913;49.892;7.936;2022-11-09T01:03:16;10.10;99.90
13682;DHT22;6913;49.892;7.936;2022-11-09T01:05:44;10.10;99.90
13682;DHT22;6913;49.892;7.936;2022-11-09T01:08:11;10.10;99.90
13682;DHT22;6913;49.892;7.936;2022-11-09T01:10:43;10.10;99.90
13682;DHT22;6913;49.892;7.936;2022-11-09T01:13:11;10.40;99.90
13682;DHT22;6913;49.892;7.936;2022-11-09T01:15:42;10.10;99.90
13682;DHT22;6913;49.892;7.936;2022-11-09T01:18:10;10.20;99.90
13682;DHT22;6913;49.892;7.936;2022-11-09T01:20:38;10.40;99.90
13682;DHT22;6913;49.892;7.936;2022-11-09T01:23:07;10.50;99.90
13682;DHT22;6913;49.892;7.936;2022-11-09T01:25:34;10.20;99.90
13682;DHT22;6913;49.892;7.936;2022-11-09T01:28:02;10.20;99.90
13682;DHT22;6913;49.892;7.936;2022-11-09T01:30:31;10.10;99.90
13682;DHT22;6913;49.892;7.936;2022-11-09T01:32:58;10.00;99.90
13682;DHT22;6913;49.892;7.936;2022-11-09T01:35:25;10.30;99.90
13682;DHT22;6913;49.892;7.936;2022-11-09T01:37:52;10.10;99.90
13682;DHT22;6913;49.892;7.936;2022-11-09T01:40:21;10.40;99.90
13682;DHT22;6913;49.892;7.936;2022-11-09T01:42:47;10.40;99.90
13682;DHT22;6913;49.892;7.936;2022-11-09T01:45:27;10.20;99.90
13682;DHT22;6913;49.892;7.936;2022-11-09T01:47:59;10.40;99.90
13682;DHT22;6913;49.892;7.936;2022-11-09T01:50:35;10.60;99.90
13682;DHT22;6913;49.892;7.936;2022-11-09T01:53:08;11.00;99.90
13682;DHT22;6913;49.892;7.936;2022-11-09T01:55:37;11.30;99.90
13682;DHT22;6913;49.892;7.936;2022-11-09T01:58:07;11.40;99.90
13682;DHT22;6913;49.892;7.936;2022-11-09T02:00:35;11.30;99.90
13682;DHT22;6913;49.892;7.936;2022-11-09T02:03:06;11.50;99.90
13682;DHT22;6913;49.892;7.936;2022-11-09T02:05:37;11.30;99.90
13682;DHT22;6913;49.892;7.936;2022-11-09T02:08:06;11.40;99.90
13682;DHT22;6913;49.892;7.936;2022-11-09T02:10:40;11.70;99.90
13682;DHT22;6913;49.892;7.936;2022-11-09T02:13:12;11.40;99.90
13682;DHT22;6913;49.892;7.936;2022-11-09T02:15:40;11.60;99.90
13682;DHT22;6913;49.892;7.936;2022-11-09T02:18:07;11.30;99.90
13682;DHT22;6913;49.892;7.936;2022-11-09T02:20:46;11.20;99.90
13682;DHT22;6913;49.892;7.936;2022-11-09T02:23:14;11.40;99.90
13682;DHT22;6913;49.892;7.936;2022-11-09T02:25:44;11.20;99.90
13682;DHT22;6913;49.892;7.936;2022-11-09T02:28:12;11.10;99.90
13682;DHT22;6913;49.892;7.936;2022-11-09T02:30:40;11.10;99.90
13682;DHT22;6913;49.892;7.936;2022-11-09T02:33:07;10.90;99.90
13682;DHT22;6913;49.892;7.936;2022-11-09T02:35:34;10.90;99.90
13682;DHT22;6913;49.892;7.936;2022-11-09T02:38:02;10.90;99.90
13682;DHT22;6913;49.892;7.936;2022-11-09T02:40:32;11.10;99.90
13682;DHT22;6913;49.892;7.936;2022-11-09T02:43:02;11.30;99.90
13682;DHT22;6913;49.892;7.936;2022-11-09T02:45:29;11.40;99.90
13682;DHT22;6913;49.892;7.936;2022-11-09T02:47:56;11.40;99.90
13682;DHT22;6913;49.892;7.936;2022-11-09T02:50:23;11.40;99.90
13682;DHT22;6913;49.892;7.936;2022-11-09T02:52:50;11.30;99.90
13682;DHT22;6913;49.892;7.936;2022-11-09T02:55:18;11.30;99.90
13682;DHT22;6913;49.892;7.936;2022-11-09T02:57:45;11.10;99.90
13682;DHT22;6913;49.892;7.936;2022-11-09T03:00:12;10.90;99.90
13682;DHT22;6913;49.892;7.936;2022-11-09T03:02:40;10.70;99.90
13682;DHT22;6913;49.892;7.936;2022-11-09T03:05:07;10.70;99.90
13682;DHT22;6913;49.892;7.936;2022-11-09T03:07:34;10.70;99.90
13682;DHT22;6913;49.892;7.936;2022-11-09T03:10:01;10.70;99.90
13682;DHT22;6913;49.892;7.936;2022-11-09T03:12:29;10.60;99.90
13682;DHT22;6913;49.892;7.936;2022-11-09T03:14:57;10.60;99.90
13682;DHT22;6913;49.892;7.936;2022-11-09T03:17:24;10.90;99.90
13682;DHT22;6913;49.892;7.936;2022-11-09T03:19:52;10.60;99.90
13682;DHT22;6913;49.892;7.936;2022-11-09T03:22:19;10.90;99.90
13682;DHT22;6913;49.892;7.936;2022-11-09T03:24:46;10.70;99.90
13682;DHT22;6913;49.892;7.936;2022-11-09T03:27:13;10.60;99.90
13682;DHT22;6913;49.892;7.936;2022-11-09T03:29:41;10.70;99.90
13682;DHT22;6913;49.892;7.936;2022-11-09T03:32:08;10.60;99.90
13682;DHT22;6913;49.892;7.936;2022-11-09T03:34:35;10.70;99.90
13682;DHT22;6913;49.892;7.936;2022-11-09T03:37:02;10.70;99.90
13682;DHT22;6913;49.892;7.936;2022-11-09T03:39:29;10.40;99.90
13682;DHT22;6913;49.892;7.936;2022-11-09T03:41:56;10.40;99.90
13682;DHT22;6913;49.892;7.936;2022-11-09T03:44:23;10.40;99.90
13682;DHT22;6913;49.892;7.936;2022-11-09T03:46:51;10.50;99.90
13682;DHT22;6913;49.892;7.936;2022-11-09T03:49:18;10.60;99.90
13682;DHT22;6913;49.892;7.936;2022-11-09T03:51:45;10.80;99.90
13682;DHT22;6913;49.892;7.936;2022-11-09T03:54:12;10.80;99.90
13682;DHT22;6913;49.892;7.936;2022-11-09T03:56:38;10.90;99.90
13682;DHT22;6913;49.892;7.936;2022-11-09T03:59:05;11.00;99.90
13682;DHT22;6913;49.892;7.936;2022-11-09T04:01:32;10.90;99.90
13682;DHT22;6913;49.892;7.936;2022-11-09T04:04:00;10.90;99.90
13682;DHT22;6913;49.892;7.936;2022-11-09T04:06:27;11.20;99.90
13682;DHT22;6913;49.892;7.936;2022-11-09T04:08:54;10.40;99.90
13682;DHT22;6913;49.892;7.936;2022-11-09T04:11:21;10.90;99.90
13682;DHT22;6913;49.892;7.936;2022-11-09T04:13:48;11.20;99.90
13682;DHT22;6913;49.892;7.936;2022-11-09T04:16:14;10.90;99.90
13682;DHT22;6913;49.892;7.936;2022-11-09T04:18:41;10.90;99.90
13682;DHT22;6913;49.892;7.936;2022-11-09T04:21:10;11.10;99.90
13682;DHT22;6913;49.892;7.936;2022-11-09T04:23:36;11.10;99.90
13682;DHT22;6913;49.892;7.936;2022-11-09T04:26:03;10.90;99.90
13682;DHT22;6913;49.892;7.936;2022-11-09T04:28:30;10.80;99.90
13682;DHT22;6913;49.892;7.936;2022-11-09T04:30:59;10.90;99.90
13682;DHT22;6913;49.892;7.936;2022-11-09T04:33:26;10.60;99.90
13682;DHT22;6913;49.892;7.936;2022-11-09T04:35:53;10.70;99.90
13682;DHT22;6913;49.892;7.936;2022-11-09T04:38:21;10.70;99.90
13682;DHT22;6913;49.892;7.936;2022-11-09T04:40:48;10.90;99.90
13682;DHT22;6913;49.892;7.936;2022-11-09T04:43:15;10.60;99.90
13682;DHT22;6913;49.892;7.936;2022-11-09T04:45:42;10.90;99.90
13682;DHT22;6913;49.892;7.936;2022-11-09T04:48:10;11.00;99.90
13682;DHT22;6913;49.892;7.936;2022-11-09T04:50:38;11.20;99.90
13682;DHT22;6913;49.892;7.936;2022-11-09T04:53:06;11.40;99.90
13682;DHT22;6913;49.892;7.936;2022-11-09T04:55:35;11.40;99.90
13682;DHT22;6913;49.892;7.936;2022-11-09T04:58:02;12.10;99.90
13682;DHT22;6913;49.892;7.936;2022-11-09T05:00:29;11.50;99.90
13682;DHT22;6913;49.892;7.936;2022-11-09T05:02:59;11.80;99.90
13682;DHT22;6913;49.892;7.936;2022-11-09T05:05:26;11.50;99.90
13682;DHT22;6913;49.892;7.936;2022-11-09T05:07:53;11.50;99.90
13682;DHT22;6913;49.892;7.936;2022-11-09T05:10:20;11.50;99.90
13682;DHT22;6913;49.892;7.936;2022-11-09T05:12:51;11.80;99.90
13682;DHT22;6913;49.892;7.936;2022-11-09T05:15:22;11.60;99.90
13682;DHT22;6913;49.892;7.936;2022-11-09T05:17:49;11.60;99.90
13682;DHT22;6913;49.892;7.936;2022-11-09T05:20:16;11.50;99.90
13682;DHT22;6913;49.892;7.936;2022-11-09T05:22:43;11.50;99.90
13682;DHT22;6913;49.892;7.936;2022-11-09T05:25:29;11.90;99.90
13682;DHT22;6913;49.892;7.936;2022-11-09T05:27:57;11.70;99.90
13682;DHT22;6913;49.892;7.936;2022-11-09T05:30:25;11.70;99.90
13682;DHT22;6913;49.892;7.936;2022-11-09T05:32:52;11.60;99.90
13682;DHT22;6913;49.892;7.936;2022-11-09T05:35:19;11.60;99.90
13682;DHT22;6913;49.892;7.936;2022-11-09T05:37:46;11.70;99.90
13682;DHT22;6913;49.892;7.936;2022-11-09T05:40:15;12.10;99.90
13682;DHT22;6913;49.892;7.936;2022-11-09T05:42:42;11.80;99.90
13682;DHT22;6913;49.892;7.936;2022-11-09T05:45:12;11.70;99.90
13682;DHT22;6913;49.892;7.936;2022-11-09T05:47:40;11.60;99.90
13682;DHT22;6913;49.892;7.936;2022-11-09T05:50:09;11.70;99.90
13682;DHT22;6913;49.892;7.936;2022-11-09T05:52:37;11.70;99.90
13682;DHT22;6913;49.892;7.936;2022-11-09T05:55:04;11.80;99.90
13682;DHT22;6913;49.892;7.936;2022-11-09T05:57:31;11.50;99.90
13682;DHT22;6913;49.892;7.936;2022-11-09T05:59:58;11.80;99.90
13682;DHT22;6913;49.892;7.936;2022-11-09T06:02:29;11.60;99.90
13682;DHT22;6913;49.892;7.936;2022-11-09T06:04:56;11.70;99.90
13682;DHT22;6913;49.892;7.936;2022-11-09T06:07:23;11.60;99.90
13682;DHT22;6913;49.892;7.936;2022-11-09T06:09:50;11.50;99.90
13682;DHT22;6913;49.892;7.936;2022-11-09T06:12:17;11.50;99.90
13682;DHT22;6913;49.892;7.936;2022-11-09T06:14:44;11.50;99.90
13682;DHT22;6913;49.892;7.936;2022-11-09T06:17:11;11.70;99.90
13682;DHT22;6913;49.892;7.936;2022-11-09T06:19:39;11.50;99.90
13682;DHT22;6913;49.892;7.936;2022-11-09T06:22:06;11.50;99.90
13682;DHT22;6913;49.892;7.936;2022-11-09T06:24:32;11.60;99.90
13682;DHT22;6913;49.892;7.936;2022-11-09T06:26:59;11.50;99.90
13682;DHT22;6913;49.892;7.936;2022-11-09T06:29:26;11.80;99.90
13682;DHT22;6913;49.892;7.936;2022-11-09T06:31:53;11.50;99.90
13682;DHT22;6913;49.892;7.936;2022-11-09T06:34:20;11.50;99.90
13682;DHT22;6913;49.892;7.936;2022-11-09T06:36:48;11.50;99.90
13682;DHT22;6913;49.892;7.936;2022-11-09T06:39:15;11.40;99.90
13682;DHT22;6913;49.892;7.936;2022-11-09T06:41:42;11.40;99.90
13682;DHT22;6913;49.892;7.936;2022-11-09T06:44:09;11.70;99.90
13682;DHT22;6913;49.892;7.936;2022-11-09T06:46:36;11.60;99.90
13682;DHT22;6913;49.892;7.936;2022-11-09T06:49:03;11.50;99.90
13682;DHT22;6913;49.892;7.936;2022-11-09T06:51:29;11.40;99.90
13682;DHT22;6913;49.892;7.936;2022-11-09T06:53:57;11.50;99.90
13682;DHT22;6913;49.892;7.936;2022-11-09T06:56:24;11.80;99.90
13682;DHT22;6913;49.892;7.936;2022-11-09T06:58:51;11.50;99.90
13682;DHT22;6913;49.892;7.936;2022-11-09T07:01:22;12.00;99.90
13682;DHT22;6913;49.892;7.936;2022-11-09T07:03:50;11.50;99.90
13682;DHT22;6913;49.892;7.936;2022-11-09T07:06:17;11.50;99.90
13682;DHT22;6913;49.892;7.936;2022-11-09T07:08:44;11.50;99.90
13682;DHT22;6913;49.892;7.936;2022-11-09T07:11:14;11.50;99.90
13682;DHT22;6913;49.892;7.936;2022-11-09T07:13:41;11.60;99.90
13682;DHT22;6913;49.892;7.936;2022-11-09T07:16:08;11.70;99.90
13682;DHT22;6913;49.892;7.936;2022-11-09T07:18:37;11.90;99.90
13682;DHT22;6913;49.892;7.936;2022-11-09T07:21:04;12.40;99.90
13682;DHT22;6913;49.892;7.936;2022-11-09T07:23:31;11.90;99.90
13682;DHT22;6913;49.892;7.936;2022-11-09T07:25:58;12.00;99.90
13682;DHT22;6913;49.892;7.936;2022-11-09T07:28:26;12.10;99.90
13682;DHT22;6913;49.892;7.936;2022-11-09T07:30:53;12.20;99.90
13682;DHT22;6913;49.892;7.936;2022-11-09T07:33:20;12.30;99.90
13682;DHT22;6913;49.892;7.936;2022-11-09T07:35:47;13.10;99.90
13682;DHT22;6913;49.892;7.936;2022-11-09T07:38:14;12.40;99.90
13682;DHT22;6913;49.892;7.936;2022-11-09T07:40:41;12.40;99.90
13682;DHT22;6913;49.892;7.936;2022-11-09T07:43:10;12.50;99.90
13682;DHT22;6913;49.892;7.936;2022-11-09T07:45:39;12.50;99.90
13682;DHT22;6913;49.892;7.936;2022-11-09T07:48:07;12.60;99.90
13682;DHT22;6913;49.892;7.936;2022-11-09T07:50:36;12.60;99.90
13682;DHT22;6913;49.892;7.936;2022-11-09T07:53:04;12.60;99.90
13682;DHT22;6913;49.892;7.936;2022-11-09T07:55:32;12.60;99.90
13682;DHT22;6913;49.892;7.936;2022-11-09T07:58:01;12.70;99.90
13682;DHT22;6913;49.892;7.936;2022-11-09T08:00:29;12.70;99.90
13682;DHT22;6913;49.892;7.936;2022-11-09T08:02:58;12.70;99.90
13682;DHT22;6913;49.892;7.936;2022-11-09T08:05:25;12.70;99.90
13682;DHT22;6913;49.892;7.936;2022-11-09T08:07:56;12.70;99.90
13682;DHT22;6913;49.892;7.936;2022-11-09T08:10:24;12.70;99.90
13682;DHT22;6913;49.892;7.936;2022-11-09T08:12:52;12.80;99.90
13682;DHT22;6913;49.892;7.936;2022-11-09T08:15:19;12.80;99.90
13682;DHT22;6913;49.892;7.936;2022-11-09T08:17:46;12.90;99.90
13682;DHT22;6913;49.892;7.936;2022-11-09T08:20:15;12.90;99.90
13682;DHT22;6913;49.892;7.936;2022-11-09T08:22:43;12.90;99.90
13682;DHT22;6913;49.892;7.936;2022-11-09T08:25:10;13.00;99.90
13682;DHT22;6913;49.892;7.936;2022-11-09T08:27:38;13.10;99.90
13682;DHT22;6913;49.892;7.936;2022-11-09T08:30:07;13.40;99.90
13682;DHT22;6913;49.892;7.936;2022-11-09T08:32:36;13.30;99.90
13682;DHT22;6913;49.892;7.936;2022-11-09T08:35:03;13.40;99.90
13682;DHT22;6913;49.892;7.936;2022-11-09T08:37:32;13.50;99.90
13682;DHT22;6913;49.892;7.936;2022-11-09T08:39:59;13.60;99.90
13682;DHT22;6913;49.892;7.936;2022-11-09T08:42:26;13.80;99.90
13682;DHT22;6913;49.892;7.936;2022-11-09T08:44:53;14.10;99.90
13682;DHT22;6913;49.892;7.936;2022-11-09T08:47:20;14.40;99.90
13682;DHT22;6913;49.892;7.936;2022-11-09T08:49:47;14.80;99.90
13682;DHT22;6913;49.892;7.936;2022-11-09T08:52:15;15.10;99.90
13682;DHT22;6913;49.892;7.936;2022-11-09T08:54:43;15.10;99.90
13682;DHT22;6913;49.892;7.936;2022-11-09T08:57:11;15.40;99.90
13682;DHT22;6913;49.892;7.936;2022-11-09T08:59:38;15.70;99.90
13682;DHT22;6913;49.892;7.936;2022-11-09T09:02:05;15.70;99.90
13682;DHT22;6913;49.892;7.936;2022-11-09T09:04:32;15.80;99.90
13682;DHT22;6913;49.892;7.936;2022-11-09T09:06:59;15.80;99.90
13682;DHT22;6913;49.892;7.936;2022-11-09T09:09:26;15.60;99.90
13682;DHT22;6913;49.892;7.936;2022-11-09T09:11:54;15.70;99.90
13682;DHT22;6913;49.892;7.936;2022-11-09T09:14:21;15.50;99.90
13682;DHT22;6913;49.892;7.936;2022-11-09T09:16:48;15.40;99.90
13682;DHT22;6913;49.892;7.936;2022-11-09T09:19:14;15.40;99.90
13682;DHT22;6913;49.892;7.936;2022-11-09T09:21:41;15.30;99.90
13682;DHT22;6913;49.892;7.936;2022-11-09T09:24:08;16.60;99.90
13682;DHT22;6913;49.892;7.936;2022-11-09T09:26:35;15.00;99.90
13682;DHT22;6913;49.892;7.936;2022-11-09T09:29:04;15.00;99.90
13682;DHT22;6913;49.892;7.936;2022-11-09T09:31:30;15.00;99.90
13682;DHT22;6913;49.892;7.936;2022-11-09T09:33:57;15.00;99.90
13682;DHT22;6913;49.892;7.936;2022-11-09T09:36:24;15.00;99.90
13682;DHT22;6913;49.892;7.936;2022-11-09T09:38:52;15.00;99.90
13682;DHT22;6913;49.892;7.936;2022-11-09T09:41:22;15.10;99.90
13682;DHT22;6913;49.892;7.936;2022-11-09T09:43:53;15.00;99.90
13682;DHT22;6913;49.892;7.936;2022-11-09T09:46:27;15.10;99.90
13682;DHT22;6913;49.892;7.936;2022-11-09T09:48:59;15.10;99.90
13682;DHT22;6913;49.892;7.936;2022-11-09T09:51:33;15.20;99.90
13682;DHT22;6913;49.892;7.936;2022-11-09T09:54:05;16.80;99.90
13682;DHT22;6913;49.892;7.936;2022-11-09T09:56:35;15.60;99.90
13682;DHT22;6913;49.892;7.936;2022-11-09T09:59:09;15.60;99.90
13682;DHT22;6913;49.892;7.936;2022-11-09T10:01:41;15.80;99.90
13682;DHT22;6913;49.892;7.936;2022-11-09T10:04:15;15.90;99.90
13682;DHT22;6913;49.892;7.936;2022-11-09T10:06:51;16.20;99.90
13682;DHT22;6913;49.892;7.936;2022-11-09T10:09:35;16.50;99.90
13682;DHT22;6913;49.892;7.936;2022-11-09T10:12:12;16.90;99.90
13682;DHT22;6913;49.892;7.936;2022-11-09T10:15:05;17.90;99.90
13682;DHT22;6913;49.892;7.936;2022-11-09T10:17:43;16.70;99.90
13682;DHT22;6913;49.892;7.936;2022-11-09T10:20:29;16.50;99.90
13682;DHT22;6913;49.892;7.936;2022-11-09T10:23:11;16.60;99.90
13682;DHT22;6913;49.892;7.936;2022-11-09T10:25:44;16.80;99.90
13682;DHT22;6913;49.892;7.936;2022-11-09T10:28:14;16.70;99.90
13682;DHT22;6913;49.892;7.936;2022-11-09T10:30:41;17.10;99.90
13682;DHT22;6913;49.892;7.936;2022-11-09T10:33:15;16.90;99.90
13682;DHT22;6913;49.892;7.936;2022-11-09T10:35:49;16.80;99.90
13682;DHT22;6913;49.892;7.936;2022-11-09T10:38:23;16.90;99.90
13682;DHT22;6913;49.892;7.936;2022-11-09T10:40:53;17.50;99.90
13682;DHT22;6913;49.892;7.936;2022-11-09T10:43:22;16.80;99.90
13682;DHT22;6913;49.892;7.936;2022-11-09T10:45:57;16.80;99.90
13682;DHT22;6913;49.892;7.936;2022-11-09T10:48:33;16.80;99.90
13682;DHT22;6913;49.892;7.936;2022-11-09T10:51:01;17.30;99.90
13682;DHT22;6913;49.892;7.936;2022-11-09T10:53:29;16.30;99.90
13682;DHT22;6913;49.892;7.936;2022-11-09T10:55:58;17.00;99.90
13682;DHT22;6913;49.892;7.936;2022-11-09T10:58:33;16.20;99.90
13682;DHT22;6913;49.892;7.936;2022-11-09T11:01:03;16.40;99.90
13682;DHT22;6913;49.892;7.936;2022-11-09T11:03:34;16.40;99.90
13682;DHT22;6913;49.892;7.936;2022-11-09T11:06:03;16.50;99.90
13682;DHT22;6913;49.892;7.936;2022-11-09T11:08:34;16.60;99.90
13682;DHT22;6913;49.892;7.936;2022-11-09T11:11:18;16.70;99.90
13682;DHT22;6913;49.892;7.936;2022-11-09T11:13:47;16.70;99.90
13682;DHT22;6913;49.892;7.936;2022-11-09T11:16:25;16.70;99.90
13682;DHT22;6913;49.892;7.936;2022-11-09T11:18:54;16.80;99.90
13682;DHT22;6913;49.892;7.936;2022-11-09T11:21:23;16.90;99.90
13682;DHT22;6913;49.892;7.936;2022-11-09T11:24:11;17.30;99.90
13682;DHT22;6913;49.892;7.936;2022-11-09T11:26:46;17.20;99.90
13682;DHT22;6913;49.892;7.936;2022-11-09T11:32:09;17.70;99.90
13682;DHT22;6913;49.892;7.936;2022-11-09T11:34:39;17.60;99.90
13682;DHT22;6913;49.892;7.936;2022-11-09T11:37:17;18.50;99.90
13682;DHT22;6913;49.892;7.936;2022-11-09T11:39:58;17.90;99.90
13682;DHT22;6913;49.892;7.936;2022-11-09T11:42:46;19.00;99.90
13682;DHT22;6913;49.892;7.936;2022-11-09T11:45:20;17.90;99.90
13682;DHT22;6913;49.892;7.936;2022-11-09T11:47:55;18.00;99.90
13682;DHT22;6913;49.892;7.936;2022-11-09T11:50:37;18.50;99.90
13682;DHT22;6913;49.892;7.936;2022-11-09T11:53:16;17.80;99.90
13682;DHT22;6913;49.892;7.936;2022-11-09T11:56:01;18.30;99.90
13682;DHT22;6913;49.892;7.936;2022-11-09T11:58:48;17.30;99.90
13682;DHT22;6913;49.892;7.936;2022-11-09T12:01:30;17.00;99.90
13682;DHT22;6913;49.892;7.936;2022-11-09T12:04:15;17.00;99.90
13682;DHT22;6913;49.892;7.936;2022-11-09T12:06:59;16.90;99.90
13682;DHT22;6913;49.892;7.936;2022-11-09T12:09:53;16.90;99.90
13682;DHT22;6913;49.892;7.936;2022-11-09T12:12:34;16.80;99.90
13682;DHT22;6913;49.892;7.936;2022-11-09T12:15:20;16.70;99.90
13682;DHT22;6913;49.892;7.936;2022-11-09T12:17:53;16.60;99.90
13682;DHT22;6913;49.892;7.936;2022-11-09T12:20:27;16.60;99.90
13682;DHT22;6913;49.892;7.936;2022-11-09T12:23:06;16.60;99.90
13682;DHT22;6913;49.892;7.936;2022-11-09T12:25:45;16.60;99.90
13682;DHT22;6913;49.892;7.936;2022-11-09T12:28:46;16.60;99.90
13682;DHT22;6913;49.892;7.936;2022-11-09T12:31:24;16.60;99.90
13682;DHT22;6913;49.892;7.936;2022-11-09T12:33:59;16.60;99.90
13682;DHT22;6913;49.892;7.936;2022-11-09T12:36:33;16.50;99.90
13682;DHT22;6913;49.892;7.936;2022-11-09T12:39:09;16.40;99.90
13682;DHT22;6913;49.892;7.936;2022-11-09T12:41:39;16.30;99.90
13682;DHT22;6913;49.892;7.936;2022-11-09T12:44:12;16.20;99.90
13682;DHT22;6913;49.892;7.936;2022-11-09T12:46:43;16.10;99.90
13682;DHT22;6913;49.892;7.936;2022-11-09T12:49:24;16.10;99.90
13682;DHT22;6913;49.892;7.936;2022-11-09T12:51:53;16.10;99.90
13682;DHT22;6913;49.892;7.936;2022-11-09T12:54:22;16.10;99.90
13682;DHT22;6913;49.892;7.936;2022-11-09T12:56:53;16.10;99.90
13682;DHT22;6913;49.892;7.936;2022-11-09T12:59:33;16.10;99.90
13682;DHT22;6913;49.892;7.936;2022-11-09T13:02:01;16.10;99.90
13682;DHT22;6913;49.892;7.936;2022-11-09T13:04:28;16.10;99.90
13682;DHT22;6913;49.892;7.936;2022-11-09T13:07:15;16.10;99.90
13682;DHT22;6913;49.892;7.936;2022-11-09T13:09:44;16.00;99.90
13682;DHT22;6913;49.892;7.936;2022-11-09T13:12:25;15.90;99.90
13682;DHT22;6913;49.892;7.936;2022-11-09T13:14:54;15.90;99.90
13682;DHT22;6913;49.892;7.936;2022-11-09T13:20:45;16.00;99.90
13682;DHT22;6913;49.892;7.936;2022-11-09T13:23:30;16.00;99.90
13682;DHT22;6913;49.892;7.936;2022-11-09T13:25:59;15.90;99.90
13682;DHT22;6913;49.892;7.936;2022-11-09T13:29:16;15.80;99.90
13682;DHT22;6913;49.892;7.936;2022-11-09T13:32:21;16.10;99.90
13682;DHT22;6913;49.892;7.936;2022-11-09T13:34:49;15.70;99.90
13682;DHT22;6913;49.892;7.936;2022-11-09T13:37:37;15.70;99.90
13682;DHT22;6913;49.892;7.936;2022-11-09T13:40:40;15.70;99.90
13682;DHT22;6913;49.892;7.936;2022-11-09T13:43:22;15.70;99.90
13682;DHT22;6913;49.892;7.936;2022-11-09T13:45:52;15.80;99.90
13682;DHT22;6913;49.892;7.936;2022-11-09T13:48:40;15.60;99.90
13682;DHT22;6913;49.892;7.936;2022-11-09T13:51:10;15.60;99.90
13682;DHT22;6913;49.892;7.936;2022-11-09T13:53:50;15.60;99.90
13682;DHT22;6913;49.892;7.936;2022-11-09T13:56:27;15.60;99.90
13682;DHT22;6913;49.892;7.936;2022-11-09T13:58:59;15.30;99.90
13682;DHT22;6913;49.892;7.936;2022-11-09T14:01:31;15.40;99.90
13682;DHT22;6913;49.892;7.936;2022-11-09T14:03:58;15.30;99.90
13682;DHT22;6913;49.892;7.936;2022-11-09T14:06:27;15.30;99.90
13682;DHT22;6913;49.892;7.936;2022-11-09T14:08:55;15.40;99.90
13682;DHT22;6913;49.892;7.936;2022-11-09T14:11:46;15.40;99.90
13682;DHT22;6913;49.892;7.936;2022-11-09T14:17:51;15.30;99.90
13682;DHT22;6913;49.892;7.936;2022-11-09T14:20:27;15.10;99.90
13682;DHT22;6913;49.892;7.936;2022-11-09T14:22:56;15.20;99.90
13682;DHT22;6913;49.892;7.936;2022-11-09T14:25:24;14.90;99.90
13682;DHT22;6913;49.892;7.936;2022-11-09T14:27:52;14.90;99.90
13682;DHT22;6913;49.892;7.936;2022-11-09T14:30:25;14.80;99.90
13682;DHT22;6913;49.892;7.936;2022-11-09T14:32:54;14.70;99.90
13682;DHT22;6913;49.892;7.936;2022-11-09T14:35:24;15.30;99.90
13682;DHT22;6913;49.892;7.936;2022-11-09T14:37:53;14.70;99.90
13682;DHT22;6913;49.892;7.936;2022-11-09T14:40:23;14.80;99.90
13682;DHT22;6913;49.892;7.936;2022-11-09T14:42:52;14.70;99.90
13682;DHT22;6913;49.892;7.936;2022-11-09T14:45:20;14.70;99.90
13682;DHT22;6913;49.892;7.936;2022-11-09T14:47:49;14.60;99.90
13682;DHT22;6913;49.892;7.936;2022-11-09T14:50:21;14.60;99.90
13682;DHT22;6913;49.892;7.936;2022-11-09T14:52:49;14.60;99.90
13682;DHT22;6913;49.892;7.936;2022-11-09T14:55:18;14.60;99.90
13682;DHT22;6913;49.892;7.936;2022-11-09T14:57:46;14.60;99.90
13682;DHT22;6913;49.892;7.936;2022-11-09T15:00:25;14.60;99.90
13682;DHT22;6913;49.892;7.936;2022-11-09T15:02:53;14.50;99.90
13682;DHT22;6913;49.892;7.936;2022-11-09T15:05:32;14.50;99.90
13682;DHT22;6913;49.892;7.936;2022-11-09T15:08:00;14.40;99.90
13682;DHT22;6913;49.892;7.936;2022-11-09T15:10:28;14.50;99.90
13682;DHT22;6913;49.892;7.936;2022-11-09T15:13:00;14.40;99.90
13682;DHT22;6913;49.892;7.936;2022-11-09T15:15:29;14.40;99.90
13682;DHT22;6913;49.892;7.936;2022-11-09T15:17:57;14.50;99.90
13682;DHT22;6913;49.892;7.936;2022-11-09T15:20:31;14.40;99.90
13682;DHT22;6913;49.892;7.936;2022-11-09T15:23:00;14.50;99.90
13682;DHT22;6913;49.892;7.936;2022-11-09T15:25:31;14.40;99.90
13682;DHT22;6913;49.892;7.936;2022-11-09T15:28:02;14.60;99.90
13682;DHT22;6913;49.892;7.936;2022-11-09T15:30:32;14.30;99.90
13682;DHT22;6913;49.892;7.936;2022-11-09T15:33:00;14.40;99.90
13682;DHT22;6913;49.892;7.936;2022-11-09T15:35:47;14.40;99.90
13682;DHT22;6913;49.892;7.936;2022-11-09T15:38:29;14.40;99.90
13682;DHT22;6913;49.892;7.936;2022-11-09T15:40:56;14.40;99.90
13682;DHT22;6913;49.892;7.936;2022-11-09T15:43:23;14.30;99.90
13682;DHT22;6913;49.892;7.936;2022-11-09T15:45:49;14.30;99.90
13682;DHT22;6913;49.892;7.936;2022-11-09T15:48:16;14.30;99.90
13682;DHT22;6913;49.892;7.936;2022-11-09T15:50:44;14.20;99.90
13682;DHT22;6913;49.892;7.936;2022-11-09T15:53:12;14.50;99.90
13682;DHT22;6913;49.892;7.936;2022-11-09T15:55:39;13.90;99.90
13682;DHT22;6913;49.892;7.936;2022-11-09T15:58:06;13.80;99.90
13682;DHT22;6913;49.892;7.936;2022-11-09T16:00:32;13.70;99.90
13682;DHT22;6913;49.892;7.936;2022-11-09T16:02:59;13.80;99.90
13682;DHT22;6913;49.892;7.936;2022-11-09T16:05:26;13.90;99.90
13682;DHT22;6913;49.892;7.936;2022-11-09T16:07:54;14.00;99.90
13682;DHT22;6913;49.892;7.936;2022-11-09T16:10:21;14.00;99.90
13682;DHT22;6913;49.892;7.936;2022-11-09T16:12:50;14.10;99.90
13682;DHT22;6913;49.892;7.936;2022-11-09T16:15:17;14.00;99.90
13682;DHT22;6913;49.892;7.936;2022-11-09T16:17:44;14.00;99.90